sensor_id;sensor_type;location;lat;lon;timestamp;P1;durP1;ratioP1;P2;durP2;ratioP2
55172;SDS011;41061;52.822;6.860;2023-02-28T00:02:20;14.80;;;4.75;;
55172;SDS011;41061;52.822;6.860;2023-02-28T00:04:46;11.73;;;4.80;;
55172;SDS011;41061;52.822;6.860;2023-02-28T00:07:18;10.52;;;4.82;;
55172;SDS011;41061;52.822;6.860;2023-02-28T00:09:44;10.50;;;4.40;;
55172;SDS011;41061;52.822;6.860;2023-02-28T00:12:10;10.13;;;4.20;;
55172;SDS011;41061;52.822;6.860;2023-02-28T00:14:36;13.15;;;4.93;;
55172;SDS011;41061;52.822;6.860;2023-02-28T00:17:02;15.60;;;5.00;;
55172;SDS011;41061;52.822;6.860;2023-02-28T00:19:28;8.82;;;4.75;;
55172;SDS011;41061;52.822;6.860;2023-02-28T00:21:54;11.95;;;5.90;;
55172;SDS011;41061;52.822;6.860;2023-02-28T00:24:20;12.52;;;4.45;;
55172;SDS011;41061;52.822;6.860;2023-02-28T00:26:46;10.75;;;5.05;;
55172;SDS011;41061;52.822;6.860;2023-02-28T00:29:12;14.23;;;5.03;;
55172;SDS011;41061;52.822;6.860;2023-02-28T00:31:38;11.90;;;4.63;;
55172;SDS011;41061;52.822;6.860;2023-02-28T00:34:04;11.55;;;5.15;;
55172;SDS011;41061;52.822;6.860;2023-02-28T00:36:30;11.90;;;4.57;;
55172;SDS011;41061;52.822;6.860;2023-02-28T00:38:56;14.45;;;5.30;;
55172;SDS011;41061;52.822;6.860;2023-02-28T00:41:22;7.65;;;4.30;;
55172;SDS011;41061;52.822;6.860;2023-02-28T00:43:48;13.57;;;4.22;;
55172;SDS011;41061;52.822;6.860;2023-02-28T00:46:15;14.40;;;4.38;;
55172;SDS011;41061;52.822;6.860;2023-02-28T00:48:41;7.20;;;3.72;;
55172;SDS011;41061;52.822;6.860;2023-02-28T00:51:07;12.25;;;4.10;;
55172;SDS011;41061;52.822;6.860;2023-02-28T00:53:33;7.65;;;4.22;;
55172;SDS011;41061;52.822;6.860;2023-02-28T00:55:59;8.45;;;4.03;;
55172;SDS011;41061;52.822;6.860;2023-02-28T00:58:25;9.38;;;4.55;;
55172;SDS011;41061;52.822;6.860;2023-02-28T01:00:51;8.23;;;3.55;;
55172;SDS011;41061;52.822;6.860;2023-02-28T01:03:19;8.18;;;4.05;;
55172;SDS011;41061;52.822;6.860;2023-02-28T01:05:45;10.05;;;3.83;;
55172;SDS011;41061;52.822;6.860;2023-02-28T01:08:11;10.32;;;4.90;;
55172;SDS011;41061;52.822;6.860;2023-02-28T01:10:38;10.10;;;4.32;;
55172;SDS011;41061;52.822;6.860;2023-02-28T01:13:11;14.23;;;4.43;;
55172;SDS011;41061;52.822;6.860;2023-02-28T01:15:38;8.13;;;3.65;;
55172;SDS011;41061;52.822;6.860;2023-02-28T01:18:04;10.45;;;4.03;;
55172;SDS011;41061;52.822;6.860;2023-02-28T01:20:30;8.13;;;3.65;;
55172;SDS011;41061;52.822;6.860;2023-02-28T01:22:56;9.80;;;4.22;;
55172;SDS011;41061;52.822;6.860;2023-02-28T01:25:22;8.70;;;4.35;;
55172;SDS011;41061;52.822;6.860;2023-02-28T01:27:48;13.50;;;4.32;;
55172;SDS011;41061;52.822;6.860;2023-02-28T01:30:14;7.20;;;3.70;;
55172;SDS011;41061;52.822;6.860;2023-02-28T01:32:41;7.57;;;3.78;;
55172;SDS011;41061;52.822;6.860;2023-02-28T01:35:07;9.57;;;3.90;;
55172;SDS011;41061;52.822;6.860;2023-02-28T01:37:33;12.43;;;4.55;;
55172;SDS011;41061;52.822;6.860;2023-02-28T01:39:59;11.15;;;3.95;;
55172;SDS011;41061;52.822;6.860;2023-02-28T01:42:25;12.15;;;4.28;;
55172;SDS011;41061;52.822;6.860;2023-02-28T01:47:20;11.85;;;5.03;;
55172;SDS011;41061;52.822;6.860;2023-02-28T01:49:47;14.52;;;3.90;;
55172;SDS011;41061;52.822;6.860;2023-02-28T01:52:14;6.97;;;3.92;;
55172;SDS011;41061;52.822;6.860;2023-02-28T01:54:43;8.48;;;3.90;;
55172;SDS011;41061;52.822;6.860;2023-02-28T01:57:12;12.50;;;4.63;;
55172;SDS011;41061;52.822;6.860;2023-02-28T02:00:13;7.00;;;3.65;;
55172;SDS011;41061;52.822;6.860;2023-02-28T02:02:33;9.30;;;4.13;;
55172;SDS011;41061;52.822;6.860;2023-02-28T02:05:04;13.30;;;5.22;;
55172;SDS011;41061;52.822;6.860;2023-02-28T02:07:31;7.63;;;3.83;;
55172;SDS011;41061;52.822;6.860;2023-02-28T02:10:02;10.05;;;3.85;;
55172;SDS011;41061;52.822;6.860;2023-02-28T02:12:37;8.65;;;4.85;;
55172;SDS011;41061;52.822;6.860;2023-02-28T02:15:29;8.95;;;4.13;;
55172;SDS011;41061;52.822;6.860;2023-02-28T02:17:57;10.85;;;4.22;;
55172;SDS011;41061;52.822;6.860;2023-02-28T02:20:41;9.35;;;4.60;;
55172;SDS011;41061;52.822;6.860;2023-02-28T02:31:10;8.80;;;3.35;;
55172;SDS011;41061;52.822;6.860;2023-02-28T02:34:06;8.98;;;3.78;;
55172;SDS011;41061;52.822;6.860;2023-02-28T02:36:37;7.40;;;3.65;;
55172;SDS011;41061;52.822;6.860;2023-02-28T02:39:06;11.43;;;6.05;;
55172;SDS011;41061;52.822;6.860;2023-02-28T02:41:35;8.05;;;4.30;;
55172;SDS011;41061;52.822;6.860;2023-02-28T02:44:04;7.25;;;4.07;;
55172;SDS011;41061;52.822;6.860;2023-02-28T02:46:33;9.00;;;4.97;;
55172;SDS011;41061;52.822;6.860;2023-02-28T02:49:00;8.60;;;4.40;;
55172;SDS011;41061;52.822;6.860;2023-02-28T02:51:29;10.20;;;4.05;;
55172;SDS011;41061;52.822;6.860;2023-02-28T02:54:06;7.60;;;3.88;;
55172;SDS011;41061;52.822;6.860;2023-02-28T02:56:33;8.93;;;4.05;;
55172;SDS011;41061;52.822;6.860;2023-02-28T02:59:03;8.82;;;4.78;;
55172;SDS011;41061;52.822;6.860;2023-02-28T03:01:30;7.30;;;4.38;;
55172;SDS011;41061;52.822;6.860;2023-02-28T03:03:57;7.90;;;4.35;;
55172;SDS011;41061;52.822;6.860;2023-02-28T03:06:25;10.18;;;4.35;;
55172;SDS011;41061;52.822;6.860;2023-02-28T03:08:51;9.13;;;5.03;;
55172;SDS011;41061;52.822;6.860;2023-02-28T03:11:18;11.10;;;5.18;;
55172;SDS011;41061;52.822;6.860;2023-02-28T03:21:43;9.48;;;4.47;;
55172;SDS011;41061;52.822;6.860;2023-02-28T03:24:16;7.22;;;4.30;;
55172;SDS011;41061;52.822;6.860;2023-02-28T03:26:45;12.68;;;4.93;;
55172;SDS011;41061;52.822;6.860;2023-02-28T03:29:23;10.10;;;4.82;;
55172;SDS011;41061;52.822;6.860;2023-02-28T03:31:55;8.15;;;4.53;;
55172;SDS011;41061;52.822;6.860;2023-02-28T03:34:26;7.18;;;4.40;;
55172;SDS011;41061;52.822;6.860;2023-02-28T03:36:59;13.85;;;5.97;;
55172;SDS011;41061;52.822;6.860;2023-02-28T03:42:02;12.98;;;4.93;;
55172;SDS011;41061;52.822;6.860;2023-02-28T03:44:32;8.85;;;4.50;;
55172;SDS011;41061;52.822;6.860;2023-02-28T03:49:35;9.63;;;4.38;;
55172;SDS011;41061;52.822;6.860;2023-02-28T03:52:03;10.93;;;5.00;;
55172;SDS011;41061;52.822;6.860;2023-02-28T03:54:32;10.50;;;4.80;;
55172;SDS011;41061;52.822;6.860;2023-02-28T03:57:16;8.75;;;4.28;;
55172;SDS011;41061;52.822;6.860;2023-02-28T03:59:44;9.57;;;4.63;;
55172;SDS011;41061;52.822;6.860;2023-02-28T04:02:12;10.70;;;5.38;;
55172;SDS011;41061;52.822;6.860;2023-02-28T04:04:39;9.75;;;4.60;;
55172;SDS011;41061;52.822;6.860;2023-02-28T04:07:10;8.20;;;4.65;;
55172;SDS011;41061;52.822;6.860;2023-02-28T04:09:37;8.75;;;5.50;;
55172;SDS011;41061;52.822;6.860;2023-02-28T04:12:03;9.90;;;5.07;;
55172;SDS011;41061;52.822;6.860;2023-02-28T04:14:29;11.18;;;6.25;;
55172;SDS011;41061;52.822;6.860;2023-02-28T04:16:55;10.45;;;5.53;;
55172;SDS011;41061;52.822;6.860;2023-02-28T04:19:21;9.82;;;5.38;;
55172;SDS011;41061;52.822;6.860;2023-02-28T04:21:48;17.80;;;5.93;;
55172;SDS011;41061;52.822;6.860;2023-02-28T04:24:19;10.20;;;5.72;;
55172;SDS011;41061;52.822;6.860;2023-02-28T04:26:47;13.10;;;6.57;;
55172;SDS011;41061;52.822;6.860;2023-02-28T04:29:17;11.43;;;6.07;;
55172;SDS011;41061;52.822;6.860;2023-02-28T04:31:44;13.88;;;6.22;;
55172;SDS011;41061;52.822;6.860;2023-02-28T04:34:10;10.45;;;6.28;;
55172;SDS011;41061;52.822;6.860;2023-02-28T04:36:36;12.30;;;6.43;;
55172;SDS011;41061;52.822;6.860;2023-02-28T04:39:02;12.48;;;6.47;;
55172;SDS011;41061;52.822;6.860;2023-02-28T04:41:29;15.80;;;6.55;;
55172;SDS011;41061;52.822;6.860;2023-02-28T04:43:55;14.20;;;6.80;;
55172;SDS011;41061;52.822;6.860;2023-02-28T04:46:21;14.75;;;6.15;;
55172;SDS011;41061;52.822;6.860;2023-02-28T04:48:48;12.00;;;6.30;;
55172;SDS011;41061;52.822;6.860;2023-02-28T04:51:15;13.65;;;6.60;;
55172;SDS011;41061;52.822;6.860;2023-02-28T04:53:41;9.10;;;5.93;;
55172;SDS011;41061;52.822;6.860;2023-02-28T04:56:08;9.20;;;6.15;;
55172;SDS011;41061;52.822;6.860;2023-02-28T04:58:34;9.45;;;5.97;;
55172;SDS011;41061;52.822;6.860;2023-02-28T05:01:04;11.02;;;6.05;;
55172;SDS011;41061;52.822;6.860;2023-02-28T05:03:37;11.95;;;6.35;;
55172;SDS011;41061;52.822;6.860;2023-02-28T05:06:05;10.68;;;6.38;;
55172;SDS011;41061;52.822;6.860;2023-02-28T05:08:32;15.27;;;6.25;;
55172;SDS011;41061;52.822;6.860;2023-02-28T05:10:58;10.02;;;6.25;;
55172;SDS011;41061;52.822;6.860;2023-02-28T05:13:25;10.38;;;6.18;;
55172;SDS011;41061;52.822;6.860;2023-02-28T05:15:52;16.23;;;6.85;;
55172;SDS011;41061;52.822;6.860;2023-02-28T05:18:18;13.82;;;6.45;;
55172;SDS011;41061;52.822;6.860;2023-02-28T05:20:44;12.10;;;6.68;;
55172;SDS011;41061;52.822;6.860;2023-02-28T05:23:13;15.95;;;6.68;;
55172;SDS011;41061;52.822;6.860;2023-02-28T05:25:40;11.45;;;5.80;;
55172;SDS011;41061;52.822;6.860;2023-02-28T05:28:06;11.05;;;5.68;;
55172;SDS011;41061;52.822;6.860;2023-02-28T05:30:32;11.65;;;6.30;;
55172;SDS011;41061;52.822;6.860;2023-02-28T05:32:58;18.98;;;6.65;;
55172;SDS011;41061;52.822;6.860;2023-02-28T05:35:24;14.48;;;6.60;;
55172;SDS011;41061;52.822;6.860;2023-02-28T05:37:51;9.10;;;6.70;;
55172;SDS011;41061;52.822;6.860;2023-02-28T05:40:17;10.10;;;5.72;;
55172;SDS011;41061;52.822;6.860;2023-02-28T05:42:45;14.35;;;6.20;;
55172;SDS011;41061;52.822;6.860;2023-02-28T05:45:11;10.90;;;5.18;;
55172;SDS011;41061;52.822;6.860;2023-02-28T05:47:37;12.60;;;5.85;;
55172;SDS011;41061;52.822;6.860;2023-02-28T05:50:04;8.43;;;5.38;;
55172;SDS011;41061;52.822;6.860;2023-02-28T05:52:30;9.00;;;4.97;;
55172;SDS011;41061;52.822;6.860;2023-02-28T05:54:56;12.18;;;5.60;;
55172;SDS011;41061;52.822;6.860;2023-02-28T05:57:23;10.38;;;5.90;;
55172;SDS011;41061;52.822;6.860;2023-02-28T05:59:49;9.07;;;5.93;;
55172;SDS011;41061;52.822;6.860;2023-02-28T06:02:16;11.38;;;6.38;;
55172;SDS011;41061;52.822;6.860;2023-02-28T06:04:43;9.00;;;5.95;;
55172;SDS011;41061;52.822;6.860;2023-02-28T06:07:09;12.13;;;6.43;;
55172;SDS011;41061;52.822;6.860;2023-02-28T06:09:36;10.25;;;6.82;;
55172;SDS011;41061;52.822;6.860;2023-02-28T06:12:03;13.75;;;6.38;;
55172;SDS011;41061;52.822;6.860;2023-02-28T06:14:35;11.63;;;6.65;;
55172;SDS011;41061;52.822;6.860;2023-02-28T06:17:01;11.75;;;6.63;;
55172;SDS011;41061;52.822;6.860;2023-02-28T06:19:28;12.43;;;7.15;;
55172;SDS011;41061;52.822;6.860;2023-02-28T06:21:55;11.68;;;6.60;;
55172;SDS011;41061;52.822;6.860;2023-02-28T06:24:22;10.43;;;6.97;;
55172;SDS011;41061;52.822;6.860;2023-02-28T06:26:48;11.73;;;6.90;;
55172;SDS011;41061;52.822;6.860;2023-02-28T06:29:14;12.35;;;6.75;;
55172;SDS011;41061;52.822;6.860;2023-02-28T06:31:42;14.27;;;6.95;;
55172;SDS011;41061;52.822;6.860;2023-02-28T06:34:09;12.40;;;6.60;;
55172;SDS011;41061;52.822;6.860;2023-02-28T06:36:36;13.25;;;6.60;;
55172;SDS011;41061;52.822;6.860;2023-02-28T06:39:02;13.88;;;6.82;;
55172;SDS011;41061;52.822;6.860;2023-02-28T06:41:29;13.27;;;6.65;;
55172;SDS011;41061;52.822;6.860;2023-02-28T06:43:55;11.38;;;7.07;;
55172;SDS011;41061;52.822;6.860;2023-02-28T06:46:21;13.07;;;7.00;;
55172;SDS011;41061;52.822;6.860;2023-02-28T06:48:47;13.30;;;6.80;;
55172;SDS011;41061;52.822;6.860;2023-02-28T06:51:15;13.68;;;7.35;;
55172;SDS011;41061;52.822;6.860;2023-02-28T06:53:41;12.68;;;7.10;;
55172;SDS011;41061;52.822;6.860;2023-02-28T06:56:08;10.80;;;6.60;;
55172;SDS011;41061;52.822;6.860;2023-02-28T06:58:35;12.68;;;6.63;;
55172;SDS011;41061;52.822;6.860;2023-02-28T07:01:02;15.77;;;8.95;;
55172;SDS011;41061;52.822;6.860;2023-02-28T07:03:28;17.08;;;7.20;;
55172;SDS011;41061;52.822;6.860;2023-02-28T07:05:54;13.80;;;7.05;;
55172;SDS011;41061;52.822;6.860;2023-02-28T07:08:22;12.73;;;7.15;;
55172;SDS011;41061;52.822;6.860;2023-02-28T07:10:51;12.88;;;8.43;;
55172;SDS011;41061;52.822;6.860;2023-02-28T07:13:17;13.18;;;7.65;;
55172;SDS011;41061;52.822;6.860;2023-02-28T07:15:43;17.17;;;9.00;;
55172;SDS011;41061;52.822;6.860;2023-02-28T07:18:09;12.25;;;8.40;;
55172;SDS011;41061;52.822;6.860;2023-02-28T07:20:35;12.23;;;7.00;;
55172;SDS011;41061;52.822;6.860;2023-02-28T07:23:01;14.00;;;7.72;;
55172;SDS011;41061;52.822;6.860;2023-02-28T07:25:28;11.82;;;8.00;;
55172;SDS011;41061;52.822;6.860;2023-02-28T07:27:55;17.40;;;8.35;;
55172;SDS011;41061;52.822;6.860;2023-02-28T07:30:21;15.57;;;8.25;;
55172;SDS011;41061;52.822;6.860;2023-02-28T07:32:47;14.70;;;8.23;;
55172;SDS011;41061;52.822;6.860;2023-02-28T07:35:13;10.85;;;7.43;;
55172;SDS011;41061;52.822;6.860;2023-02-28T07:37:40;12.43;;;7.60;;
55172;SDS011;41061;52.822;6.860;2023-02-28T07:40:07;14.70;;;8.07;;
55172;SDS011;41061;52.822;6.860;2023-02-28T07:42:34;13.70;;;8.18;;
55172;SDS011;41061;52.822;6.860;2023-02-28T07:45:00;13.25;;;8.15;;
55172;SDS011;41061;52.822;6.860;2023-02-28T07:47:26;10.23;;;7.47;;
55172;SDS011;41061;52.822;6.860;2023-02-28T07:49:52;17.20;;;7.88;;
55172;SDS011;41061;52.822;6.860;2023-02-28T07:52:18;12.20;;;7.78;;
55172;SDS011;41061;52.822;6.860;2023-02-28T07:54:45;15.07;;;7.63;;
55172;SDS011;41061;52.822;6.860;2023-02-28T07:57:11;13.65;;;7.10;;
55172;SDS011;41061;52.822;6.860;2023-02-28T07:59:37;9.02;;;6.68;;
55172;SDS011;41061;52.822;6.860;2023-02-28T08:02:03;12.23;;;7.45;;
55172;SDS011;41061;52.822;6.860;2023-02-28T08:04:31;14.63;;;7.60;;
55172;SDS011;41061;52.822;6.860;2023-02-28T08:06:57;10.20;;;6.75;;
55172;SDS011;41061;52.822;6.860;2023-02-28T08:09:23;10.82;;;6.50;;
55172;SDS011;41061;52.822;6.860;2023-02-28T08:11:50;11.90;;;7.07;;
55172;SDS011;41061;52.822;6.860;2023-02-28T08:14:16;15.45;;;7.60;;
55172;SDS011;41061;52.822;6.860;2023-02-28T08:16:42;12.35;;;7.60;;
55172;SDS011;41061;52.822;6.860;2023-02-28T08:19:08;11.98;;;7.55;;
55172;SDS011;41061;52.822;6.860;2023-02-28T08:21:34;14.73;;;8.27;;
55172;SDS011;41061;52.822;6.860;2023-02-28T08:24:00;13.93;;;7.97;;
55172;SDS011;41061;52.822;6.860;2023-02-28T08:26:27;15.07;;;8.07;;
55172;SDS011;41061;52.822;6.860;2023-02-28T08:28:53;11.80;;;7.43;;
55172;SDS011;41061;52.822;6.860;2023-02-28T08:31:19;11.35;;;7.28;;
55172;SDS011;41061;52.822;6.860;2023-02-28T08:33:45;14.43;;;6.95;;
55172;SDS011;41061;52.822;6.860;2023-02-28T08:36:13;11.48;;;6.35;;
55172;SDS011;41061;52.822;6.860;2023-02-28T08:38:40;11.02;;;6.68;;
55172;SDS011;41061;52.822;6.860;2023-02-28T08:41:07;13.45;;;6.70;;
55172;SDS011;41061;52.822;6.860;2023-02-28T08:43:34;7.97;;;5.13;;
55172;SDS011;41061;52.822;6.860;2023-02-28T08:46:00;9.15;;;5.43;;
55172;SDS011;41061;52.822;6.860;2023-02-28T08:48:28;9.77;;;5.45;;
55172;SDS011;41061;52.822;6.860;2023-02-28T08:50:55;8.55;;;4.93;;
55172;SDS011;41061;52.822;6.860;2023-02-28T08:53:22;11.43;;;5.20;;
55172;SDS011;41061;52.822;6.860;2023-02-28T08:55:55;7.50;;;4.85;;
55172;SDS011;41061;52.822;6.860;2023-02-28T08:58:25;9.88;;;5.20;;
55172;SDS011;41061;52.822;6.860;2023-02-28T09:00:51;10.18;;;4.95;;
55172;SDS011;41061;52.822;6.860;2023-02-28T09:03:17;12.95;;;5.53;;
55172;SDS011;41061;52.822;6.860;2023-02-28T09:06:04;11.40;;;5.40;;
55172;SDS011;41061;52.822;6.860;2023-02-28T09:08:30;10.65;;;5.55;;
55172;SDS011;41061;52.822;6.860;2023-02-28T09:10:56;10.45;;;5.20;;
55172;SDS011;41061;52.822;6.860;2023-02-28T09:13:26;9.35;;;5.15;;
55172;SDS011;41061;52.822;6.860;2023-02-28T09:15:52;7.53;;;4.28;;
55172;SDS011;41061;52.822;6.860;2023-02-28T09:18:18;9.52;;;5.40;;
55172;SDS011;41061;52.822;6.860;2023-02-28T09:20:44;9.85;;;4.63;;
55172;SDS011;41061;52.822;6.860;2023-02-28T09:23:11;9.23;;;5.00;;
55172;SDS011;41061;52.822;6.860;2023-02-28T09:25:37;7.10;;;4.55;;
55172;SDS011;41061;52.822;6.860;2023-02-28T09:28:13;9.00;;;4.70;;
55172;SDS011;41061;52.822;6.860;2023-02-28T09:30:46;7.95;;;4.78;;
55172;SDS011;41061;52.822;6.860;2023-02-28T09:33:13;10.13;;;4.63;;
55172;SDS011;41061;52.822;6.860;2023-02-28T09:35:39;10.02;;;3.78;;
55172;SDS011;41061;52.822;6.860;2023-02-28T09:38:05;8.50;;;4.22;;
55172;SDS011;41061;52.822;6.860;2023-02-28T09:40:34;7.85;;;4.38;;
55172;SDS011;41061;52.822;6.860;2023-02-28T09:43:09;7.07;;;3.95;;
55172;SDS011;41061;52.822;6.860;2023-02-28T09:45:39;9.57;;;4.20;;
55172;SDS011;41061;52.822;6.860;2023-02-28T09:48:12;8.00;;;4.63;;
55172;SDS011;41061;52.822;6.860;2023-02-28T09:50:52;9.25;;;3.65;;
55172;SDS011;41061;52.822;6.860;2023-02-28T09:53:26;7.40;;;3.00;;
55172;SDS011;41061;52.822;6.860;2023-02-28T09:55:59;5.47;;;2.50;;
55172;SDS011;41061;52.822;6.860;2023-02-28T09:58:34;4.93;;;2.67;;
55172;SDS011;41061;52.822;6.860;2023-02-28T10:01:31;4.68;;;2.67;;
55172;SDS011;41061;52.822;6.860;2023-02-28T10:07:02;5.25;;;2.88;;
55172;SDS011;41061;52.822;6.860;2023-02-28T10:09:44;5.10;;;2.40;;
55172;SDS011;41061;52.822;6.860;2023-02-28T10:12:15;2.70;;;1.67;;
55172;SDS011;41061;52.822;6.860;2023-02-28T10:14:43;5.00;;;2.15;;
55172;SDS011;41061;52.822;6.860;2023-02-28T10:17:19;5.55;;;2.45;;
55172;SDS011;41061;52.822;6.860;2023-02-28T10:25:00;3.88;;;1.90;;
55172;SDS011;41061;52.822;6.860;2023-02-28T10:27:40;5.65;;;2.33;;
55172;SDS011;41061;52.822;6.860;2023-02-28T10:30:05;4.32;;;2.20;;
55172;SDS011;41061;52.822;6.860;2023-02-28T10:32:35;5.25;;;2.70;;
55172;SDS011;41061;52.822;6.860;2023-02-28T10:35:10;6.00;;;2.10;;
55172;SDS011;41061;52.822;6.860;2023-02-28T10:37:42;6.47;;;1.85;;
55172;SDS011;41061;52.822;6.860;2023-02-28T10:40:32;3.60;;;2.00;;
55172;SDS011;41061;52.822;6.860;2023-02-28T10:43:01;5.85;;;1.73;;
55172;SDS011;41061;52.822;6.860;2023-02-28T10:45:29;7.30;;;2.08;;
55172;SDS011;41061;52.822;6.860;2023-02-28T10:50:54;5.18;;;1.95;;
55172;SDS011;41061;52.822;6.860;2023-02-28T10:56:05;3.50;;;1.90;;
55172;SDS011;41061;52.822;6.860;2023-02-28T10:58:48;2.47;;;1.63;;
55172;SDS011;41061;52.822;6.860;2023-02-28T11:04:03;6.22;;;1.95;;
55172;SDS011;41061;52.822;6.860;2023-02-28T11:06:47;3.35;;;1.75;;
55172;SDS011;41061;52.822;6.860;2023-02-28T11:09:23;2.20;;;1.63;;
55172;SDS011;41061;52.822;6.860;2023-02-28T11:11:55;3.55;;;2.17;;
55172;SDS011;41061;52.822;6.860;2023-02-28T11:16:52;2.28;;;1.45;;
55172;SDS011;41061;52.822;6.860;2023-02-28T11:19:25;2.83;;;1.58;;
55172;SDS011;41061;52.822;6.860;2023-02-28T11:21:55;3.95;;;1.60;;
55172;SDS011;41061;52.822;6.860;2023-02-28T11:24:28;2.83;;;1.33;;
55172;SDS011;41061;52.822;6.860;2023-02-28T11:26:56;3.40;;;1.85;;
55172;SDS011;41061;52.822;6.860;2023-02-28T11:29:24;3.92;;;1.70;;
55172;SDS011;41061;52.822;6.860;2023-02-28T11:32:01;5.55;;;2.00;;
55172;SDS011;41061;52.822;6.860;2023-02-28T11:38:04;4.88;;;1.98;;
55172;SDS011;41061;52.822;6.860;2023-02-28T11:40:39;4.20;;;1.77;;
55172;SDS011;41061;52.822;6.860;2023-02-28T11:43:23;2.30;;;1.58;;
55172;SDS011;41061;52.822;6.860;2023-02-28T11:52:22;4.63;;;1.77;;
55172;SDS011;41061;52.822;6.860;2023-02-28T11:54:59;4.57;;;1.70;;
55172;SDS011;41061;52.822;6.860;2023-02-28T12:00:00;2.50;;;1.67;;
55172;SDS011;41061;52.822;6.860;2023-02-28T12:10:02;5.50;;;2.38;;
55172;SDS011;41061;52.822;6.860;2023-02-28T12:12:35;4.03;;;1.77;;
55172;SDS011;41061;52.822;6.860;2023-02-28T12:15:53;3.13;;;1.65;;
55172;SDS011;41061;52.822;6.860;2023-02-28T12:17:52;5.72;;;1.67;;
55172;SDS011;41061;52.822;6.860;2023-02-28T12:28:01;5.22;;;1.90;;
55172;SDS011;41061;52.822;6.860;2023-02-28T12:30:28;3.30;;;1.90;;
55172;SDS011;41061;52.822;6.860;2023-02-28T12:32:56;4.40;;;2.05;;
55172;SDS011;41061;52.822;6.860;2023-02-28T12:35:31;4.47;;;2.33;;
55172;SDS011;41061;52.822;6.860;2023-02-28T12:40:51;3.70;;;2.10;;
55172;SDS011;41061;52.822;6.860;2023-02-28T12:43:19;2.65;;;1.88;;
55172;SDS011;41061;52.822;6.860;2023-02-28T12:45:53;3.42;;;2.22;;
55172;SDS011;41061;52.822;6.860;2023-02-28T12:48:24;6.20;;;2.10;;
55172;SDS011;41061;52.822;6.860;2023-02-28T12:50:51;4.78;;;1.85;;
55172;SDS011;41061;52.822;6.860;2023-02-28T13:07:02;4.93;;;2.28;;
55172;SDS011;41061;52.822;6.860;2023-02-28T13:09:31;4.78;;;2.00;;
55172;SDS011;41061;52.822;6.860;2023-02-28T13:11:57;4.95;;;2.25;;
55172;SDS011;41061;52.822;6.860;2023-02-28T13:14:25;3.75;;;2.00;;
55172;SDS011;41061;52.822;6.860;2023-02-28T13:19:17;7.18;;;2.72;;
55172;SDS011;41061;52.822;6.860;2023-02-28T13:21:45;4.53;;;1.90;;
55172;SDS011;41061;52.822;6.860;2023-02-28T13:24:36;4.45;;;2.10;;
55172;SDS011;41061;52.822;6.860;2023-02-28T13:29:28;2.75;;;1.77;;
55172;SDS011;41061;52.822;6.860;2023-02-28T13:32:41;4.38;;;2.08;;
55172;SDS011;41061;52.822;6.860;2023-02-28T13:55:28;4.40;;;1.80;;
55172;SDS011;41061;52.822;6.860;2023-02-28T14:03:12;4.20;;;1.85;;
55172;SDS011;41061;52.822;6.860;2023-02-28T14:06:18;2.78;;;1.75;;
55172;SDS011;41061;52.822;6.860;2023-02-28T14:09:05;5.70;;;1.73;;
55172;SDS011;41061;52.822;6.860;2023-02-28T14:11:43;4.28;;;2.05;;
55172;SDS011;41061;52.822;6.860;2023-02-28T14:14:10;4.13;;;1.95;;
55172;SDS011;41061;52.822;6.860;2023-02-28T14:17:07;3.28;;;1.70;;
55172;SDS011;41061;52.822;6.860;2023-02-28T14:19:39;3.00;;;1.90;;
55172;SDS011;41061;52.822;6.860;2023-02-28T14:28:31;4.85;;;2.00;;
55172;SDS011;41061;52.822;6.860;2023-02-28T14:30:49;3.72;;;2.03;;
55172;SDS011;41061;52.822;6.860;2023-02-28T14:33:27;5.53;;;1.92;;
55172;SDS011;41061;52.822;6.860;2023-02-28T14:36:07;3.15;;;1.90;;
55172;SDS011;41061;52.822;6.860;2023-02-28T14:38:36;4.70;;;2.20;;
55172;SDS011;41061;52.822;6.860;2023-02-28T14:41:12;3.65;;;1.90;;
55172;SDS011;41061;52.822;6.860;2023-02-28T14:43:54;5.25;;;1.67;;
55172;SDS011;41061;52.822;6.860;2023-02-28T14:46:22;2.30;;;1.90;;
55172;SDS011;41061;52.822;6.860;2023-02-28T14:48:53;4.53;;;2.10;;
55172;SDS011;41061;52.822;6.860;2023-02-28T14:51:20;4.57;;;2.55;;
55172;SDS011;41061;52.822;6.860;2023-02-28T14:53:49;3.38;;;1.90;;
55172;SDS011;41061;52.822;6.860;2023-02-28T14:56:21;3.65;;;2.08;;
55172;SDS011;41061;52.822;6.860;2023-02-28T14:58:54;3.90;;;1.80;;
55172;SDS011;41061;52.822;6.860;2023-02-28T15:01:21;3.50;;;1.98;;
55172;SDS011;41061;52.822;6.860;2023-02-28T15:03:48;3.92;;;1.83;;
55172;SDS011;41061;52.822;6.860;2023-02-28T15:06:22;5.60;;;2.30;;
55172;SDS011;41061;52.822;6.860;2023-02-28T15:09:06;4.63;;;2.80;;
55172;SDS011;41061;52.822;6.860;2023-02-28T15:11:45;3.05;;;2.10;;
55172;SDS011;41061;52.822;6.860;2023-02-28T15:14:15;4.22;;;1.75;;
55172;SDS011;41061;52.822;6.860;2023-02-28T15:16:44;3.83;;;1.88;;
55172;SDS011;41061;52.822;6.860;2023-02-28T15:19:20;3.72;;;1.90;;
55172;SDS011;41061;52.822;6.860;2023-02-28T15:21:51;4.32;;;2.20;;
55172;SDS011;41061;52.822;6.860;2023-02-28T15:27:03;2.70;;;1.80;;
55172;SDS011;41061;52.822;6.860;2023-02-28T15:29:34;3.42;;;1.80;;
55172;SDS011;41061;52.822;6.860;2023-02-28T15:32:04;3.40;;;1.77;;
55172;SDS011;41061;52.822;6.860;2023-02-28T15:37:06;2.72;;;1.80;;
55172;SDS011;41061;52.822;6.860;2023-02-28T15:39:48;5.68;;;2.10;;
55172;SDS011;41061;52.822;6.860;2023-02-28T15:42:18;2.63;;;1.67;;
55172;SDS011;41061;52.822;6.860;2023-02-28T15:44:45;4.05;;;1.70;;
55172;SDS011;41061;52.822;6.860;2023-02-28T15:47:16;3.42;;;1.80;;
55172;SDS011;41061;52.822;6.860;2023-02-28T15:49:53;5.05;;;2.50;;
55172;SDS011;41061;52.822;6.860;2023-02-28T15:52:28;4.68;;;2.10;;
55172;SDS011;41061;52.822;6.860;2023-02-28T15:55:27;4.57;;;1.75;;
55172;SDS011;41061;52.822;6.860;2023-02-28T15:57:54;4.65;;;2.00;;
55172;SDS011;41061;52.822;6.860;2023-02-28T16:00:26;2.95;;;1.88;;
55172;SDS011;41061;52.822;6.860;2023-02-28T16:02:52;3.00;;;1.83;;
55172;SDS011;41061;52.822;6.860;2023-02-28T16:05:20;3.30;;;2.00;;
55172;SDS011;41061;52.822;6.860;2023-02-28T16:07:56;3.15;;;1.70;;
55172;SDS011;41061;52.822;6.860;2023-02-28T16:10:24;3.20;;;1.80;;
55172;SDS011;41061;52.822;6.860;2023-02-28T16:12:55;3.28;;;2.00;;
55172;SDS011;41061;52.822;6.860;2023-02-28T16:15:24;4.43;;;2.20;;
55172;SDS011;41061;52.822;6.860;2023-02-28T16:17:56;3.60;;;1.73;;
55172;SDS011;41061;52.822;6.860;2023-02-28T16:20:23;5.25;;;2.63;;
55172;SDS011;41061;52.822;6.860;2023-02-28T16:22:52;4.90;;;1.90;;
55172;SDS011;41061;52.822;6.860;2023-02-28T16:25:21;5.35;;;1.88;;
55172;SDS011;41061;52.822;6.860;2023-02-28T16:27:59;4.88;;;2.10;;
55172;SDS011;41061;52.822;6.860;2023-02-28T16:30:26;4.35;;;2.55;;
55172;SDS011;41061;52.822;6.860;2023-02-28T16:32:56;2.53;;;1.83;;
55172;SDS011;41061;52.822;6.860;2023-02-28T16:35:29;5.22;;;2.97;;
55172;SDS011;41061;52.822;6.860;2023-02-28T16:37:55;3.72;;;1.60;;
55172;SDS011;41061;52.822;6.860;2023-02-28T16:40:22;2.90;;;1.88;;
55172;SDS011;41061;52.822;6.860;2023-02-28T16:42:51;4.05;;;1.92;;
55172;SDS011;41061;52.822;6.860;2023-02-28T16:45:25;6.03;;;2.20;;
55172;SDS011;41061;52.822;6.860;2023-02-28T16:47:53;4.32;;;1.95;;
55172;SDS011;41061;52.822;6.860;2023-02-28T16:50:21;4.63;;;2.25;;
55172;SDS011;41061;52.822;6.860;2023-02-28T16:52:48;2.80;;;1.90;;
55172;SDS011;41061;52.822;6.860;2023-02-28T16:55:15;3.92;;;1.92;;
55172;SDS011;41061;52.822;6.860;2023-02-28T16:57:41;4.38;;;2.67;;
55172;SDS011;41061;52.822;6.860;2023-02-28T17:00:08;3.83;;;1.95;;
55172;SDS011;41061;52.822;6.860;2023-02-28T17:02:38;3.92;;;2.15;;
55172;SDS011;41061;52.822;6.860;2023-02-28T17:05:04;3.78;;;1.92;;
55172;SDS011;41061;52.822;6.860;2023-02-28T17:07:30;3.08;;;2.13;;